createdAt,value
2017-08-08T00:00:48.882Z,53.26
2017-08-08T00:01:48.884Z,53.04
2017-08-08T00:02:48.883Z,53.36
2017-08-08T00:03:48.883Z,53.04
2017-08-08T00:04:48.886Z,53.23
2017-08-08T00:05:48.885Z,53.26
2017-08-08T00:06:48.892Z,53.55
2017-08-08T00:07:48.896Z,53.07
2017-08-08T00:08:48.895Z,53.26
2017-08-08T00:09:48.897Z,53.26
2017-08-08T00:10:48.897Z,53.17
2017-08-08T00:11:48.903Z,53.53
2017-08-08T00:12:48.902Z,53.65
2017-08-08T00:13:48.904Z,53.65
2017-08-08T00:14:48.901Z,53.65
2017-08-08T00:15:48.903Z,53.55
2017-08-08T00:16:48.906Z,53.45
2017-08-08T00:17:48.904Z,53.81
2017-08-08T00:18:48.907Z,53.26
2017-08-08T00:19:48.910Z,53.23
2017-08-08T00:20:48.910Z,53.26
2017-08-08T00:21:48.913Z,53.23
2017-08-08T00:22:48.919Z,53.85
2017-08-08T00:23:48.918Z,53.81
2017-08-08T00:24:48.922Z,53.45
2017-08-08T00:25:48.922Z,53.43
2017-08-08T00:26:48.926Z,53.53
2017-08-08T00:27:48.924Z,53.53
2017-08-08T00:28:48.929Z,53.81
2017-08-08T00:29:48.927Z,53.53
2017-08-08T00:30:48.924Z,53.94
2017-08-08T00:31:48.929Z,53.53
2017-08-08T00:32:48.929Z,53.72
2017-08-08T00:33:48.931Z,53.81
2017-08-08T00:34:48.933Z,53.72
2017-08-08T00:35:48.933Z,54.39
2017-08-08T00:36:48.937Z,54.49
2017-08-08T00:37:48.935Z,54.30
2017-08-08T00:38:48.941Z,54.49
2017-08-08T00:39:48.946Z,54.39
2017-08-08T00:40:48.945Z,54.39
2017-08-08T00:41:48.948Z,54.39
2017-08-08T00:42:48.948Z,54.21
2017-08-08T00:43:48.951Z,54.39
2017-08-08T00:44:48.952Z,54.39
2017-08-08T00:45:48.954Z,54.30
2017-08-08T00:46:48.951Z,53.91
2017-08-08T00:47:48.951Z,54.01
2017-08-08T00:48:48.955Z,54.11
2017-08-08T00:49:48.954Z,54.01
2017-08-08T00:50:48.956Z,54.11
2017-08-08T00:51:48.960Z,53.91
2017-08-08T00:52:48.959Z,53.63
2017-08-08T00:53:48.961Z,53.63
2017-08-08T00:54:48.969Z,53.81
2017-08-08T00:55:48.969Z,53.81
2017-08-08T00:56:48.971Z,54.11
2017-08-08T00:57:48.970Z,54.11
2017-08-08T00:58:48.976Z,54.11
2017-08-08T00:59:48.973Z,54.39
2017-08-08T01:00:48.977Z,54.30
2017-08-08T01:01:48.976Z,54.39
2017-08-08T01:02:48.974Z,54.21
2017-08-08T01:03:48.977Z,54.39
2017-08-08T01:04:48.978Z,54.69
2017-08-08T01:05:48.980Z,54.49
2017-08-08T01:06:48.984Z,54.30
2017-08-08T01:07:48.987Z,54.30
2017-08-08T01:08:48.987Z,54.39
2017-08-08T01:09:48.990Z,54.59
2017-08-08T01:10:48.988Z,54.49
2017-08-08T01:11:48.992Z,54.39
2017-08-08T01:12:48.991Z,54.30
2017-08-08T01:13:48.990Z,54.49
2017-08-08T01:14:48.993Z,54.49
2017-08-08T01:15:48.993Z,54.30
2017-08-08T01:16:48.997Z,54.59
2017-08-08T01:17:48.998Z,54.39
2017-08-08T01:18:49.001Z,54.39
2017-08-08T01:19:49.009Z,54.59
2017-08-08T01:20:49.006Z,54.21
2017-08-08T01:21:49.008Z,54.30
2017-08-08T01:22:49.010Z,54.30
2017-08-08T01:23:49.009Z,54.79
2017-08-08T01:24:49.013Z,54.69
2017-08-08T01:25:49.012Z,54.59
2017-08-08T01:26:49.009Z,54.79
2017-08-08T01:27:49.013Z,54.49
2017-08-08T01:28:49.012Z,54.39
2017-08-08T01:29:49.016Z,54.21
2017-08-08T01:30:49.016Z,54.39
2017-08-08T01:31:49.018Z,54.59
2017-08-08T01:32:49.019Z,54.39
2017-08-08T01:33:49.022Z,54.30
2017-08-08T01:34:49.027Z,54.30
2017-08-08T01:35:49.027Z,54.39
2017-08-08T01:36:49.030Z,55.07
2017-08-08T01:37:49.029Z,54.88
2017-08-08T01:38:49.031Z,54.98
2017-08-08T01:39:49.036Z,54.59
2017-08-08T01:40:49.034Z,54.79
2017-08-08T01:41:49.036Z,54.79
2017-08-08T01:42:49.034Z,54.98
2017-08-08T01:43:49.034Z,54.79
2017-08-08T01:44:49.039Z,54.59
2017-08-08T01:45:49.036Z,54.88
2017-08-08T01:46:49.040Z,55.07
2017-08-08T01:47:49.039Z,54.69
2017-08-08T01:48:49.044Z,55.17
2017-08-08T01:49:49.042Z,54.88
2017-08-08T01:50:49.048Z,55.07
2017-08-08T01:51:49.051Z,55.17
2017-08-08T01:52:49.052Z,54.88
2017-08-08T01:53:49.055Z,54.59
2017-08-08T01:54:49.056Z,54.59
2017-08-08T01:55:49.055Z,54.59
2017-08-08T01:56:49.060Z,54.59
2017-08-08T01:57:49.058Z,54.79
2017-08-08T01:58:49.055Z,54.59
2017-08-08T01:59:49.059Z,54.79
2017-08-08T02:00:49.059Z,54.59
2017-08-08T02:01:49.062Z,54.59
2017-08-08T02:02:49.061Z,54.79
2017-08-08T02:03:49.065Z,54.79
2017-08-08T02:04:49.064Z,55.27
2017-08-08T02:05:49.067Z,54.69
2017-08-08T02:06:49.073Z,55.27
2017-08-08T02:07:49.373Z,54.79
2017-08-08T02:08:49.076Z,54.88
2017-08-08T02:09:49.075Z,55.27
2017-08-08T02:10:49.073Z,55.46
2017-08-08T02:11:49.077Z,55.36
2017-08-08T02:12:49.076Z,55.36
2017-08-08T02:13:49.078Z,55.36
2017-08-08T02:14:49.084Z,54.88
2017-08-08T02:15:49.085Z,55.36
2017-08-08T02:16:49.087Z,54.98
2017-08-08T02:17:49.085Z,55.27
2017-08-08T02:18:49.089Z,55.36
2017-08-08T02:19:49.089Z,54.88
2017-08-08T02:20:49.093Z,54.88
2017-08-08T02:21:49.092Z,54.98
2017-08-08T02:22:49.088Z,54.98
2017-08-08T02:23:49.092Z,55.36
2017-08-08T02:24:49.092Z,54.88
2017-08-08T02:25:49.095Z,55.07
2017-08-08T02:26:49.097Z,55.07
2017-08-08T02:27:49.095Z,55.36
2017-08-08T02:28:49.099Z,55.27
2017-08-08T02:29:49.098Z,55.36
2017-08-08T02:30:49.103Z,54.98
2017-08-08T02:31:49.107Z,55.07
2017-08-08T02:32:49.106Z,55.27
2017-08-08T02:33:49.109Z,55.36
2017-08-08T02:34:49.110Z,55.56
2017-08-08T02:35:49.113Z,55.46
2017-08-08T02:36:49.112Z,55.17
2017-08-08T02:37:49.115Z,55.85
2017-08-08T02:38:49.112Z,55.85
2017-08-08T02:39:49.112Z,55.94
2017-08-08T02:40:49.120Z,56.04
2017-08-08T02:41:49.113Z,55.94
2017-08-08T02:42:49.114Z,55.94
2017-08-08T02:43:49.118Z,55.66
2017-08-08T02:44:49.123Z,55.76
2017-08-08T02:45:49.121Z,55.76
2017-08-08T02:46:49.126Z,55.85
2017-08-08T02:47:49.128Z,55.76
2017-08-08T02:48:49.135Z,55.76
2017-08-08T02:49:49.127Z,55.82
2017-08-08T02:50:49.131Z,55.76
2017-08-08T02:51:49.131Z,55.76
2017-08-08T02:52:49.134Z,55.66
2017-08-08T02:53:49.133Z,55.56
2017-08-08T02:54:49.132Z,55.36
2017-08-08T02:55:49.133Z,55.85
2017-08-08T02:56:49.132Z,55.73
2017-08-08T02:57:49.135Z,56.04
2017-08-08T02:58:49.137Z,56.21
2017-08-08T02:59:49.136Z,56.02
2017-08-08T03:00:49.140Z,56.11
2017-08-08T03:01:49.138Z,55.56
2017-08-08T03:02:49.145Z,55.82
2017-08-08T03:03:49.148Z,55.66
2017-08-08T03:04:49.148Z,55.43
2017-08-08T03:05:49.150Z,56.24
2017-08-08T03:06:49.149Z,55.53
2017-08-08T03:07:49.152Z,55.43
2017-08-08T03:08:49.158Z,55.66
2017-08-08T03:09:49.154Z,55.63
2017-08-08T03:10:49.152Z,55.66
2017-08-08T03:11:49.151Z,55.63
2017-08-08T03:12:49.155Z,55.66
2017-08-08T03:13:49.153Z,56.02
2017-08-08T03:14:49.159Z,55.53
2017-08-08T03:15:49.162Z,55.76
2017-08-08T03:16:49.162Z,55.46
2017-08-08T03:17:49.164Z,55.43
2017-08-08T03:18:49.161Z,55.66
2017-08-08T03:19:49.161Z,55.73
2017-08-08T03:20:49.165Z,55.73
2017-08-08T03:21:49.162Z,55.56
2017-08-08T03:22:49.166Z,55.53
2017-08-08T03:23:49.166Z,55.56
2017-08-08T03:24:49.169Z,55.73
2017-08-08T03:25:49.167Z,55.63
2017-08-08T03:26:49.173Z,55.63
2017-08-08T03:27:49.176Z,55.56
2017-08-08T03:28:49.176Z,55.53
2017-08-08T03:29:49.179Z,55.53
2017-08-08T03:30:49.181Z,55.92
2017-08-08T03:31:49.180Z,56.02
2017-08-08T03:32:49.183Z,56.30
2017-08-08T03:33:49.182Z,56.21
2017-08-08T03:34:49.179Z,55.73
2017-08-08T03:35:49.182Z,56.21
2017-08-08T03:36:49.181Z,56.02
2017-08-08T03:37:49.187Z,55.73
2017-08-08T03:38:49.184Z,56.21
2017-08-08T03:39:49.187Z,55.82
2017-08-08T03:40:49.187Z,56.21
2017-08-08T03:41:49.188Z,55.82
2017-08-08T03:42:49.197Z,56.02
2017-08-08T03:43:49.194Z,56.02
2017-08-08T03:44:49.195Z,56.21
2017-08-08T03:45:49.199Z,56.21
2017-08-08T03:46:49.198Z,56.11
2017-08-08T03:47:49.201Z,56.21
2017-08-08T03:48:49.200Z,55.73
2017-08-08T03:49:49.202Z,56.21
2017-08-08T03:50:49.201Z,55.73
2017-08-08T03:51:49.199Z,56.02
2017-08-08T03:52:49.204Z,55.82
2017-08-08T03:53:49.202Z,56.30
2017-08-08T03:54:49.206Z,55.73
2017-08-08T03:55:49.206Z,55.92
2017-08-08T03:56:49.209Z,56.11
2017-08-08T03:57:49.207Z,56.11
2017-08-08T03:58:49.212Z,56.11
2017-08-08T03:59:49.223Z,56.79
2017-08-08T04:00:49.214Z,56.50
2017-08-08T04:01:49.219Z,56.50
2017-08-08T04:02:49.218Z,56.30
2017-08-08T04:03:49.217Z,56.21
2017-08-08T04:04:49.221Z,56.40
2017-08-08T04:05:49.219Z,56.50
2017-08-08T04:06:49.218Z,56.50
2017-08-08T04:07:49.221Z,56.70
2017-08-08T04:08:49.222Z,56.30
2017-08-08T04:09:49.222Z,56.40
2017-08-08T04:10:49.226Z,56.50
2017-08-08T04:11:49.226Z,56.40
2017-08-08T04:12:49.224Z,56.60
2017-08-08T04:13:49.227Z,56.40
2017-08-08T04:14:49.233Z,56.50
2017-08-08T04:15:49.232Z,56.21
2017-08-08T04:16:49.235Z,56.30
2017-08-08T04:17:49.233Z,56.60
2017-08-08T04:18:49.230Z,56.40
2017-08-08T04:19:49.234Z,56.02
2017-08-08T04:20:49.234Z,56.50
2017-08-08T04:21:49.236Z,56.21
2017-08-08T04:22:49.241Z,56.50
2017-08-08T04:23:49.240Z,56.50
2017-08-08T04:24:49.245Z,56.50
2017-08-08T04:25:49.242Z,56.60
2017-08-08T04:26:49.245Z,56.11
2017-08-08T04:27:49.246Z,56.40
2017-08-08T04:28:49.249Z,56.11
2017-08-08T04:29:49.247Z,56.40
2017-08-08T04:30:49.244Z,56.21
2017-08-08T04:31:49.248Z,56.30
2017-08-08T04:32:49.247Z,56.50
2017-08-08T04:33:49.250Z,56.30
2017-08-08T04:34:49.252Z,56.30
2017-08-08T04:35:49.251Z,56.50
2017-08-08T04:36:49.254Z,56.50
2017-08-08T04:37:49.252Z,56.30
2017-08-08T04:38:49.257Z,56.40
2017-08-08T04:39:49.263Z,56.60
2017-08-08T04:40:49.260Z,56.50
2017-08-08T04:41:49.263Z,56.40
2017-08-08T04:42:49.263Z,56.21
2017-08-08T04:43:49.265Z,56.50
2017-08-08T04:44:49.265Z,56.21
2017-08-08T04:45:49.267Z,56.50
2017-08-08T04:46:49.265Z,56.40
2017-08-08T04:47:49.264Z,56.40
2017-08-08T04:48:49.267Z,57.18
2017-08-08T04:49:49.267Z,56.79
2017-08-08T04:50:49.266Z,57.18
2017-08-08T04:51:49.271Z,56.60
2017-08-08T04:52:49.269Z,57.18
2017-08-08T04:53:49.273Z,57.08
2017-08-08T04:54:49.278Z,57.08
2017-08-08T04:55:49.276Z,57.18
2017-08-08T04:56:49.280Z,57.08
2017-08-08T04:57:49.282Z,57.08
2017-08-08T04:58:49.281Z,56.98
2017-08-08T04:59:49.281Z,57.08
2017-08-08T05:00:49.284Z,57.08
2017-08-08T05:01:49.283Z,56.88
2017-08-08T05:02:49.280Z,56.88
2017-08-08T05:03:49.282Z,56.98
2017-08-08T05:04:49.282Z,57.08
2017-08-08T05:05:49.285Z,56.98
2017-08-08T05:06:49.286Z,56.88
2017-08-08T05:07:49.285Z,56.70
2017-08-08T05:08:49.289Z,56.98
2017-08-08T05:09:49.288Z,57.08
2017-08-08T05:10:49.293Z,57.08
2017-08-08T05:11:49.296Z,57.08
2017-08-08T05:12:49.295Z,56.98
2017-08-08T05:13:49.298Z,56.98
2017-08-08T05:14:49.299Z,56.88
2017-08-08T05:15:49.302Z,56.79
2017-08-08T05:16:49.299Z,56.98
2017-08-08T05:17:49.303Z,57.46
2017-08-08T05:18:49.299Z,56.79
2017-08-08T05:19:49.298Z,56.79
2017-08-08T05:20:49.302Z,56.88
2017-08-08T05:21:49.300Z,57.08
2017-08-08T05:22:49.303Z,56.70
2017-08-08T05:23:49.303Z,57.28
2017-08-08T05:24:49.306Z,56.98
2017-08-08T05:25:49.304Z,56.70
2017-08-08T05:26:49.310Z,57.37
2017-08-08T05:27:49.314Z,56.98
2017-08-08T05:28:49.313Z,57.18
2017-08-08T05:29:49.315Z,57.08
2017-08-08T05:30:49.318Z,57.18
2017-08-08T05:31:49.318Z,56.79
2017-08-08T05:32:49.319Z,56.50
2017-08-08T05:33:49.320Z,56.98
2017-08-08T05:34:49.317Z,56.79
2017-08-08T05:35:49.316Z,56.88
2017-08-08T05:36:49.320Z,56.79
2017-08-08T05:37:49.318Z,57.08
2017-08-08T05:38:49.320Z,57.08
2017-08-08T05:39:49.327Z,56.98
2017-08-08T05:40:49.322Z,56.88
2017-08-08T05:41:49.325Z,56.98
2017-08-08T05:42:49.331Z,56.98
2017-08-08T05:43:49.330Z,56.98
2017-08-08T05:44:49.333Z,56.60
2017-08-08T05:45:49.332Z,56.79
2017-08-08T05:46:49.335Z,57.46
2017-08-08T05:47:49.334Z,57.18
2017-08-08T05:48:49.337Z,57.18
2017-08-08T05:49:49.336Z,56.98
2017-08-08T05:50:49.333Z,56.98
2017-08-08T05:51:49.336Z,56.79
2017-08-08T05:52:49.336Z,56.98
2017-08-08T05:53:49.339Z,56.70
2017-08-08T05:54:49.339Z,56.98
2017-08-08T05:55:49.338Z,57.18
2017-08-08T05:56:49.342Z,56.50
2017-08-08T05:57:49.341Z,57.08
2017-08-08T05:58:49.346Z,56.98
2017-08-08T05:59:49.349Z,56.98
2017-08-08T06:00:49.348Z,56.98
2017-08-08T06:01:49.352Z,56.98
2017-08-08T06:02:49.350Z,57.08
2017-08-08T06:03:49.354Z,57.08
2017-08-08T06:04:49.353Z,56.82
2017-08-08T06:05:49.356Z,56.98
2017-08-08T06:06:49.353Z,56.60
2017-08-08T06:07:49.354Z,56.40
2017-08-08T06:08:49.356Z,56.34
2017-08-08T06:09:49.356Z,56.52
2017-08-08T06:10:49.355Z,56.52
2017-08-08T06:11:49.361Z,56.14
2017-08-08T06:12:49.359Z,55.85
2017-08-08T06:13:49.361Z,55.76
2017-08-08T06:14:49.367Z,55.66
2017-08-08T06:15:49.816Z,55.66
2017-08-08T06:16:49.369Z,55.46
2017-08-08T06:17:49.368Z,55.66
2017-08-08T06:18:49.370Z,55.85
2017-08-08T06:19:49.370Z,55.76
2017-08-08T06:20:49.375Z,55.76
2017-08-08T06:21:49.372Z,55.66
2017-08-08T06:22:49.369Z,55.66
2017-08-08T06:23:49.372Z,55.85
2017-08-08T06:24:49.372Z,55.27
2017-08-08T06:25:49.374Z,55.49
2017-08-08T06:26:49.380Z,55.27
2017-08-08T06:27:49.379Z,55.49
2017-08-08T06:28:49.383Z,54.98
2017-08-08T06:29:49.382Z,54.98
2017-08-08T06:30:49.378Z,55.10
2017-08-08T06:31:49.382Z,54.81
2017-08-08T06:32:49.381Z,54.62
2017-08-08T06:33:49.384Z,54.71
2017-08-08T06:34:49.383Z,54.71
2017-08-08T06:35:49.385Z,54.71
2017-08-08T06:36:49.537Z,54.81
2017-08-08T06:37:49.390Z,55.10
2017-08-08T06:38:49.395Z,55.00
2017-08-08T06:39:49.394Z,54.91
2017-08-08T06:40:49.402Z,54.81
2017-08-08T06:41:49.396Z,54.81
2017-08-08T06:42:49.397Z,55.00
2017-08-08T06:43:49.402Z,55.10
2017-08-08T06:44:49.401Z,55.10
2017-08-08T06:45:49.404Z,54.71
2017-08-08T06:46:49.402Z,54.43
2017-08-08T06:47:49.401Z,54.52
2017-08-08T06:48:49.404Z,54.91
2017-08-08T06:49:49.403Z,54.62
2017-08-08T06:50:49.407Z,54.43
2017-08-08T06:51:49.406Z,54.43
2017-08-08T06:52:49.409Z,54.62
2017-08-08T06:53:49.408Z,54.52
2017-08-08T06:54:49.414Z,54.43
2017-08-08T06:55:49.417Z,54.91
2017-08-08T06:56:49.417Z,54.43
2017-08-08T06:57:49.419Z,54.81
2017-08-08T06:58:49.424Z,54.23
2017-08-08T06:59:49.421Z,54.52
2017-08-08T07:00:49.424Z,54.33
2017-08-08T07:01:49.423Z,54.43
2017-08-08T07:02:49.420Z,54.33
2017-08-08T07:03:49.425Z,54.23
2017-08-08T07:04:49.424Z,54.23
2017-08-08T07:05:49.427Z,54.43
2017-08-08T07:06:49.426Z,54.52
2017-08-08T07:07:49.430Z,54.52
2017-08-08T07:08:49.430Z,54.43
2017-08-08T07:09:49.436Z,54.23
2017-08-08T07:10:49.438Z,54.52
2017-08-08T07:11:49.437Z,54.43
2017-08-08T07:12:49.441Z,54.13
2017-08-08T07:13:49.440Z,54.03
2017-08-08T07:14:49.441Z,54.43
2017-08-08T07:15:49.445Z,54.13
2017-08-08T07:16:49.444Z,54.43
2017-08-08T07:17:49.447Z,54.03
2017-08-08T07:18:49.445Z,54.43
2017-08-08T07:19:49.444Z,54.43
2017-08-08T07:20:49.448Z,54.52
2017-08-08T07:21:49.446Z,54.23
2017-08-08T07:22:49.450Z,54.23
2017-08-08T07:23:49.450Z,54.45
2017-08-08T07:24:49.455Z,54.35
2017-08-08T07:25:49.453Z,53.89
2017-08-08T07:26:49.458Z,53.31
2017-08-08T07:27:49.461Z,53.12
2017-08-08T07:28:49.462Z,52.83
2017-08-08T07:29:49.464Z,52.54
2017-08-08T07:30:49.461Z,52.25
2017-08-08T07:31:49.461Z,52.25
2017-08-08T07:32:49.465Z,52.15
2017-08-08T07:33:49.467Z,52.25
2017-08-08T07:34:49.470Z,52.34
2017-08-08T07:35:49.473Z,52.25
2017-08-08T07:36:49.473Z,52.34
2017-08-08T07:37:49.476Z,52.44
2017-08-08T07:38:49.476Z,52.54
2017-08-08T07:39:49.480Z,52.34
2017-08-08T07:40:49.480Z,52.34
2017-08-08T07:41:49.484Z,52.54
2017-08-08T07:42:49.482Z,52.44
2017-08-08T07:43:49.480Z,52.25
2017-08-08T07:44:49.484Z,52.15
2017-08-08T07:45:49.483Z,52.15
2017-08-08T07:46:49.486Z,52.54
2017-08-08T07:47:49.490Z,52.34
2017-08-08T07:48:49.489Z,52.44
2017-08-08T07:49:49.492Z,52.15
2017-08-08T07:50:49.499Z,52.06
2017-08-08T07:51:49.498Z,52.15
2017-08-08T07:52:49.503Z,52.97
2017-08-08T07:53:49.501Z,54.59
2017-08-08T07:54:49.505Z,57.15
2017-08-08T07:55:49.505Z,57.44
2017-08-08T07:56:49.508Z,58.70
2017-08-08T07:57:49.512Z,60.92
2017-08-08T07:58:49.504Z,60.79
2017-08-08T07:59:49.508Z,62.08
2017-08-08T08:00:49.507Z,62.08
2017-08-08T08:01:49.510Z,62.66
2017-08-08T08:02:49.512Z,62.66
2017-08-08T08:03:49.519Z,62.66
2017-08-08T08:04:49.514Z,63.24
2017-08-08T08:05:49.512Z,61.79
2017-08-08T08:06:49.519Z,61.33
2017-08-08T08:07:49.522Z,60.66
2017-08-08T08:08:49.521Z,60.27
2017-08-08T08:09:49.523Z,59.69
2017-08-08T08:10:49.524Z,59.86
2017-08-08T08:11:49.527Z,56.54
2017-08-08T08:12:49.525Z,56.63
2017-08-08T08:13:49.531Z,58.89
2017-08-08T08:14:49.527Z,59.66
2017-08-08T08:15:49.524Z,60.47
2017-08-08T08:16:49.527Z,60.27
2017-08-08T08:17:49.526Z,60.85
2017-08-08T08:18:49.527Z,60.66
2017-08-08T08:19:49.530Z,60.08
2017-08-08T08:20:49.530Z,59.69
2017-08-08T08:21:49.532Z,61.08
2017-08-08T08:22:49.537Z,61.72
2017-08-08T08:23:49.536Z,61.63
2017-08-08T08:24:49.540Z,62.40
2017-08-08T08:25:49.539Z,62.01
2017-08-08T08:26:49.542Z,60.72
2017-08-08T08:27:49.740Z,60.05
2017-08-08T08:28:49.544Z,60.21
2017-08-08T08:29:49.543Z,60.11
2017-08-08T08:30:49.538Z,60.02
2017-08-08T08:31:49.542Z,61.18
2017-08-08T08:32:49.542Z,61.25
2017-08-08T08:33:49.544Z,61.25
2017-08-08T08:34:49.549Z,60.38
2017-08-08T08:35:49.548Z,60.16
2017-08-08T08:36:49.550Z,59.74
2017-08-08T08:37:49.548Z,59.77
2017-08-08T08:38:49.545Z,61.41
2017-08-08T08:39:49.549Z,60.73
2017-08-08T08:40:49.546Z,61.15
2017-08-08T08:41:49.556Z,61.63
2017-08-08T08:42:50.481Z,61.34
2017-08-08T08:43:49.547Z,61.54
2017-08-08T08:44:49.546Z,62.21
2017-08-08T08:45:49.548Z,62.21
2017-08-08T08:46:49.553Z,60.16
2017-08-08T08:47:49.551Z,60.86
2017-08-08T08:48:49.553Z,61.54
2017-08-08T08:49:49.551Z,62.18
2017-08-08T08:50:49.555Z,61.73
2017-08-08T08:51:49.556Z,61.73
2017-08-08T08:52:49.552Z,62.60
2017-08-08T08:53:49.554Z,62.02
2017-08-08T08:54:49.580Z,61.44
2017-08-08T08:55:49.552Z,61.44
2017-08-08T08:56:49.551Z,61.34
2017-08-08T08:57:49.547Z,62.21
2017-08-08T08:58:49.550Z,62.37
2017-08-08T08:59:49.548Z,61.19
2017-08-08T09:00:49.551Z,61.15
2017-08-08T09:01:49.548Z,62.12
2017-08-08T09:02:49.553Z,61.31
2017-08-08T09:03:49.555Z,60.80
2017-08-08T09:04:49.558Z,60.03
2017-08-08T09:05:49.553Z,59.64
2017-08-08T09:06:49.553Z,58.90
2017-08-08T09:07:49.567Z,58.61
2017-08-08T09:08:49.554Z,57.93
2017-08-08T09:09:49.551Z,58.42
2017-08-08T09:10:49.546Z,58.64
2017-08-08T09:11:49.548Z,58.54
2017-08-08T09:12:49.546Z,57.64
2017-08-08T09:13:49.546Z,57.09
2017-08-08T09:14:49.545Z,59.51
2017-08-08T09:15:49.552Z,60.57
2017-08-08T09:16:49.545Z,60.80
2017-08-08T09:17:49.548Z,60.54
2017-08-08T09:18:49.550Z,57.93
2017-08-08T09:19:49.547Z,56.84
2017-08-08T09:20:49.549Z,56.74
2017-08-08T09:21:49.546Z,56.87
2017-08-08T09:22:49.545Z,57.04
2017-08-08T09:23:49.547Z,57.74
2017-08-08T09:24:49.545Z,58.12
2017-08-08T09:25:49.546Z,58.12
2017-08-08T09:26:49.540Z,58.77
2017-08-08T09:27:49.538Z,59.64
2017-08-08T09:28:49.546Z,59.45
2017-08-08T09:29:49.537Z,59.19
2017-08-08T09:30:49.539Z,58.68
2017-08-08T09:31:49.536Z,58.58
2017-08-08T09:32:49.537Z,58.61
2017-08-08T09:33:49.533Z,58.10
2017-08-08T09:34:49.535Z,57.14
2017-08-08T09:35:49.538Z,56.91
2017-08-08T09:36:49.532Z,58.26
2017-08-08T09:37:49.531Z,58.29
2017-08-08T09:38:49.530Z,57.68
2017-08-08T09:39:49.526Z,58.26
2017-08-08T09:40:49.523Z,59.52
2017-08-08T09:41:49.518Z,62.27
2017-08-08T09:42:49.513Z,60.34
2017-08-08T09:43:49.512Z,59.82
2017-08-08T09:44:49.507Z,58.30
2017-08-08T09:45:49.505Z,57.71
2017-08-08T09:46:49.499Z,55.47
2017-08-08T09:47:49.498Z,56.18
2017-08-08T09:48:49.492Z,57.08
2017-08-08T09:49:49.490Z,56.13
2017-08-08T09:50:49.490Z,56.71
2017-08-08T09:51:49.484Z,58.15
2017-08-08T09:52:49.484Z,57.95
2017-08-08T09:53:49.482Z,55.53
2017-08-08T09:54:49.474Z,55.66
2017-08-08T09:55:49.473Z,56.05
2017-08-08T09:56:49.468Z,55.81
2017-08-08T09:57:49.466Z,57.24
2017-08-08T09:58:49.458Z,55.87
2017-08-08T09:59:49.453Z,56.57
2017-08-08T10:00:49.454Z,55.92
2017-08-08T10:01:49.449Z,55.63
2017-08-08T10:02:49.448Z,55.70
2017-08-08T10:03:49.443Z,55.63
2017-08-08T10:04:49.443Z,55.63
2017-08-08T10:05:49.437Z,55.73
2017-08-08T10:06:49.439Z,56.14
2017-08-08T10:07:49.440Z,55.20
2017-08-08T10:08:49.436Z,55.00
2017-08-08T10:09:49.435Z,54.91
2017-08-08T10:10:49.433Z,54.59
2017-08-08T10:11:49.429Z,55.99
2017-08-08T10:12:49.429Z,56.50
2017-08-08T10:13:49.424Z,55.56
2017-08-08T10:14:49.419Z,55.66
2017-08-08T10:15:49.423Z,55.57
2017-08-08T10:16:49.415Z,55.76
2017-08-08T10:17:49.414Z,58.10
2017-08-08T10:18:49.410Z,58.37
2017-08-08T10:19:49.409Z,57.95
2017-08-08T10:20:49.405Z,56.04
2017-08-08T10:21:49.404Z,55.68
2017-08-08T10:22:49.405Z,55.94
2017-08-08T10:23:49.403Z,55.74
2017-08-08T10:24:49.402Z,56.93
2017-08-08T10:25:49.396Z,56.63
2017-08-08T10:26:49.394Z,56.84
2017-08-08T10:27:49.392Z,58.87
2017-08-08T10:28:49.389Z,58.70
2017-08-08T10:29:49.387Z,56.95
2017-08-08T10:30:49.380Z,57.66
2017-08-08T10:31:49.378Z,57.18
2017-08-08T10:32:49.376Z,55.51
2017-08-08T10:33:49.371Z,56.47
2017-08-08T10:34:49.371Z,55.56
2017-08-08T10:35:49.368Z,54.83
2017-08-08T10:36:49.368Z,55.51
2017-08-08T10:37:49.365Z,55.73
2017-08-08T10:38:49.367Z,55.82
2017-08-08T10:39:49.366Z,55.53
2017-08-08T10:40:49.362Z,55.10
2017-08-08T10:41:49.365Z,54.81
2017-08-08T10:42:49.356Z,54.13
2017-08-08T10:43:49.353Z,55.74
2017-08-08T10:44:49.354Z,56.68
2017-08-08T10:45:49.349Z,56.43
2017-08-08T10:46:49.352Z,58.42
2017-08-08T10:47:49.353Z,58.51
2017-08-08T10:48:49.344Z,58.35
2017-08-08T10:49:49.342Z,57.54
2017-08-08T10:50:49.338Z,57.08
2017-08-08T10:51:49.337Z,55.79
2017-08-08T10:52:49.332Z,55.83
2017-08-08T10:53:49.331Z,56.37
2017-08-08T10:54:49.325Z,55.94
2017-08-08T10:55:49.317Z,55.62
2017-08-08T10:56:49.316Z,56.46
2017-08-08T10:57:49.310Z,56.51
2017-08-08T10:58:49.306Z,56.70
2017-08-08T10:59:49.304Z,55.57
2017-08-08T11:00:49.298Z,55.70
2017-08-08T11:01:49.296Z,55.43
2017-08-08T11:02:49.298Z,54.59
2017-08-08T11:03:49.294Z,53.85
2017-08-08T11:04:49.294Z,52.87
2017-08-08T11:05:49.289Z,52.10
2017-08-08T11:06:49.290Z,52.03
2017-08-08T11:07:49.287Z,51.84
2017-08-08T11:08:49.289Z,51.32
2017-08-08T11:09:49.286Z,51.04
2017-08-08T11:10:49.280Z,51.52
2017-08-08T11:11:49.281Z,51.45
2017-08-08T11:12:49.279Z,51.93
2017-08-08T11:13:49.286Z,51.74
2017-08-08T11:14:49.281Z,51.25
2017-08-08T11:15:49.279Z,51.90
2017-08-08T11:16:49.282Z,52.03
2017-08-08T11:17:49.278Z,52.58
2017-08-08T11:18:49.284Z,52.29
2017-08-08T11:19:49.286Z,52.10
2017-08-08T11:20:49.284Z,52.49
2017-08-08T11:21:49.286Z,52.10
2017-08-08T11:22:49.285Z,52.20
2017-08-08T11:23:49.290Z,52.42
2017-08-08T11:24:49.287Z,52.51
2017-08-08T11:25:49.290Z,52.32
2017-08-08T11:26:49.286Z,52.29
2017-08-08T11:27:49.287Z,52.42
2017-08-08T11:28:49.288Z,52.12
2017-08-08T11:29:49.286Z,52.12
2017-08-08T11:30:49.288Z,52.51
2017-08-08T11:31:49.291Z,51.93
2017-08-08T11:32:49.290Z,52.12
2017-08-08T11:33:49.293Z,52.32
2017-08-08T11:34:49.298Z,52.64
2017-08-08T11:35:49.296Z,51.86
2017-08-08T11:36:49.300Z,51.57
2017-08-08T11:37:49.303Z,51.37
2017-08-08T11:38:49.302Z,51.37
2017-08-08T11:39:49.302Z,51.11
2017-08-08T11:40:49.305Z,51.59
2017-08-08T11:41:49.304Z,51.40
2017-08-08T11:42:49.301Z,50.82
2017-08-08T11:43:49.304Z,50.53
2017-08-08T11:44:49.305Z,50.65
2017-08-08T11:45:49.307Z,50.26
2017-08-08T11:46:49.313Z,50.46
2017-08-08T11:47:49.312Z,50.09
2017-08-08T11:48:49.318Z,49.61
2017-08-08T11:49:49.315Z,49.12
2017-08-08T11:50:49.313Z,49.39
2017-08-08T11:51:49.316Z,49.22
2017-08-08T11:52:49.317Z,49.10
2017-08-08T11:53:49.321Z,49.58
2017-08-08T11:54:49.319Z,49.39
2017-08-08T11:55:49.323Z,49.87
2017-08-08T11:56:49.323Z,49.68
2017-08-08T11:57:49.327Z,49.87
2017-08-08T11:58:49.333Z,49.97
2017-08-08T11:59:49.332Z,50.26
2017-08-08T12:00:49.337Z,50.26
2017-08-08T12:01:49.337Z,50.26
2017-08-08T12:02:49.338Z,50.26
2017-08-08T12:03:49.342Z,50.26
2017-08-08T12:04:49.342Z,50.07
2017-08-08T12:05:49.346Z,50.72
2017-08-08T12:06:49.344Z,50.62
2017-08-08T12:07:49.344Z,50.62
2017-08-08T12:08:49.353Z,50.60
2017-08-08T12:09:49.346Z,51.47
2017-08-08T12:10:49.351Z,51.47
2017-08-08T12:11:49.353Z,51.37
2017-08-08T12:12:49.355Z,51.37
2017-08-08T12:13:49.353Z,51.57
2017-08-08T12:14:49.360Z,51.37
2017-08-08T12:15:49.364Z,51.37
2017-08-08T12:16:49.365Z,51.76
2017-08-08T12:17:49.369Z,52.64
2017-08-08T12:18:49.370Z,51.96
2017-08-08T12:19:49.370Z,52.51
2017-08-08T12:20:49.374Z,52.12
2017-08-08T12:21:49.374Z,52.51
2017-08-08T12:22:49.372Z,52.25
2017-08-08T12:23:49.376Z,52.25
2017-08-08T12:24:49.376Z,52.06
2017-08-08T12:25:49.379Z,52.34
2017-08-08T12:26:49.380Z,52.42
2017-08-08T12:27:49.383Z,51.96
2017-08-08T12:28:49.383Z,52.15
2017-08-08T12:29:49.387Z,52.34
2017-08-08T12:30:49.393Z,52.44
2017-08-08T12:31:49.392Z,52.54
2017-08-08T12:32:49.397Z,52.25
2017-08-08T12:33:49.396Z,52.54
2017-08-08T12:34:49.398Z,52.25
2017-08-08T12:35:49.402Z,52.03
2017-08-08T12:36:49.403Z,52.15
2017-08-08T12:37:49.407Z,52.22
2017-08-08T12:38:49.402Z,52.54
2017-08-08T12:39:49.404Z,51.96
2017-08-08T12:40:49.407Z,52.15
2017-08-08T12:41:49.412Z,52.64
2017-08-08T12:42:49.410Z,52.64
2017-08-08T12:43:49.411Z,53.09
2017-08-08T12:44:49.414Z,52.71
2017-08-08T12:45:49.414Z,52.90
2017-08-08T12:46:49.419Z,52.80
2017-08-08T12:47:49.423Z,53.02
2017-08-08T12:48:49.424Z,52.90
2017-08-08T12:49:49.427Z,53.29
2017-08-08T12:50:49.424Z,53.00
2017-08-08T12:51:49.432Z,52.51
2017-08-08T12:52:49.429Z,52.61